Wetterdaten: Woche 14.09.15 - 20.09.15 (KW38)
Datum Zeit Temp. A. Feuchte A. Luftdruck Regen Wind Richtung Sonnenschein ET UV Solar Taupunkt Windchill Windben Empfang
14.09.2015 00:00 13,2 C 86 % 1008,2 hPa 0,0 l/m 0,0 km/h (0 Bft) N 0,00 h 0,000 mm 0,0 UV-I 0 W/m 10,9 C 13,2 C 0,0 km/h (0 Bft) 0,00 %
14.09.2015 01:00 12,6 C 89 % 1007,7 hPa 0,0 l/m 0,0 km/h (0 Bft) N 0,00 h 0,000 mm 0,0 UV-I 0 W/m 10,8 C 12,6 C 0,0 km/h (0 Bft) 0,00 %
14.09.2015 02:00 11,9 C 91 % 1007,2 hPa 0,0 l/m 0,0 km/h (0 Bft) N 0,00 h 0,000 mm 0,0 UV-I 0 W/m 10,4 C 11,9 C 0,0 km/h (0 Bft) 0,00 %
14.09.2015 03:00 11,7 C 92 % 1006,7 hPa 0,0 l/m 0,0 km/h (0 Bft) N 0,00 h 0,000 mm 0,0 UV-I 0 W/m 10,4 C 11,7 C 0,0 km/h (0 Bft) 0,00 %
14.09.2015 04:00 10,9 C 93 % 1006,4 hPa 0,0 l/m 0,0 km/h (0 Bft) N 0,00 h 0,000 mm 0,0 UV-I 0 W/m 9,8 C 10,9 C 0,0 km/h (0 Bft) 0,00 %
14.09.2015 05:00 11,1 C 94 % 1005,9 hPa 0,0 l/m 0,0 km/h (0 Bft) N 0,00 h 0,000 mm 0,0 UV-I 0 W/m 10,2 C 11,1 C 0,0 km/h (0 Bft) 0,00 %
14.09.2015 06:00 11,8 C 92 % 1005,7 hPa 0,0 l/m 0,0 km/h (0 Bft) N 0,00 h 0,000 mm 0,0 UV-I 5 W/m 10,5 C 11,8 C 0,0 km/h (0 Bft) 0,00 %
14.09.2015 07:00 12,7 C 88 % 1005,8 hPa 0,0 l/m 0,0 km/h (0 Bft) N 0,00 h 0,000 mm 0,0 UV-I 20 W/m 10,8 C 12,7 C 0,0 km/h (0 Bft) 0,00 %
14.09.2015 08:00 13,0 C 89 % 1006,0 hPa 0,3 l/m 0,0 km/h (0 Bft) N 0,00 h 0,000 mm 0,0 UV-I 34 W/m 11,2 C 13,0 C 0,0 km/h (0 Bft) 0,00 %
14.09.2015 09:00 13,1 C 93 % 1007,1 hPa 0,9 l/m 0,9 km/h (0 Bft) O 0,00 h 0,000 mm 0,0 UV-I 39 W/m 12,0 C 13,1 C 2,0 km/h (1 Bft) 0,00 %
14.09.2015 10:00 14,4 C 92 % 1008,3 hPa 0,9 l/m 2,9 km/h (1 Bft) W-SW 0,17 h 0,000 mm 1,2 UV-I 246 W/m 13,0 C 14,3 C 6,3 km/h (2 Bft) 0,00 %
14.09.2015 11:00 17,2 C 83 % 1008,6 hPa 0,0 l/m 1,8 km/h (1 Bft) W 0,08 h 0,000 mm 1,4 UV-I 292 W/m 14,2 C 17,2 C 4,0 km/h (1 Bft) 0,00 %
14.09.2015 12:00 18,5 C 73 % 1008,9 hPa 0,0 l/m 3,1 km/h (1 Bft) W-SW 0,25 h 0,000 mm 1,4 UV-I 244 W/m 13,6 C 18,4 C 6,0 km/h (2 Bft) 0,00 %
14.09.2015 13:00 16,7 C 81 % 1009,8 hPa 0,3 l/m 3,5 km/h (1 Bft) W-SW 0,00 h 0,000 mm 1,0 UV-I 81 W/m 13,3 C 16,3 C 6,0 km/h (2 Bft) 0,00 %
14.09.2015 14:00 16,0 C 81 % 1009,9 hPa 0,0 l/m 1,0 km/h (0 Bft) N-NW 0,00 h 0,000 mm 1,0 UV-I 111 W/m 12,7 C 16,0 C 2,7 km/h (1 Bft) 0,00 %
14.09.2015 15:00 16,2 C 78 % 1009,9 hPa 0,0 l/m 0,8 km/h (0 Bft) W-SW 0,00 h 0,000 mm 1,0 UV-I 99 W/m 12,3 C 16,2 C 1,3 km/h (1 Bft) 0,00 %
14.09.2015 16:00 15,9 C 77 % 1011,0 hPa 0,0 l/m 3,7 km/h (1 Bft) W-SW 0,00 h 0,000 mm 1,0 UV-I 90 W/m 11,8 C 15,7 C 5,3 km/h (1 Bft) 0,00 %
14.09.2015 17:00 15,2 C 79 % 1011,1 hPa 0,0 l/m 2,7 km/h (1 Bft) W-NW 0,00 h 0,000 mm 1,0 UV-I 48 W/m 11,5 C 14,8 C 4,6 km/h (1 Bft) 0,00 %
14.09.2015 18:00 14,2 C 83 % 1011,6 hPa 0,3 l/m 0,3 km/h (0 Bft) N-NO 0,00 h 0,000 mm 0,0 UV-I 11 W/m 11,3 C 14,2 C 0,7 km/h (0 Bft) 0,00 %
14.09.2015 19:00 13,1 C 92 % 1010,9 hPa 0,3 l/m 0,5 km/h (0 Bft) O-NO 0,00 h 0,000 mm 0,0 UV-I 0 W/m 11,7 C 13,1 C 1,0 km/h (0 Bft) 0,00 %
14.09.2015 20:00 12,1 C 95 % 1011,0 hPa 0,0 l/m 0,0 km/h (0 Bft) N 0,00 h 0,000 mm 0,0 UV-I 0 W/m 11,2 C 12,1 C 0,0 km/h (0 Bft) 0,00 %
14.09.2015 21:00 11,1 C 97 % 1011,2 hPa 0,0 l/m 0,0 km/h (0 Bft) N 0,00 h 0,000 mm 0,0 UV-I 0 W/m 10,6 C 11,1 C 0,0 km/h (0 Bft) 0,00 %
14.09.2015 22:00 10,3 C 98 % 1011,4 hPa 0,0 l/m 0,0 km/h (0 Bft) N 0,00 h 0,000 mm 0,0 UV-I 0 W/m 10,0 C 10,3 C 0,0 km/h (0 Bft) 0,00 %
14.09.2015 23:00 10,3 C 98 % 1011,8 hPa 0,0 l/m 0,0 km/h (0 Bft) N 0,00 h 0,000 mm 0,0 UV-I 0 W/m 10,0 C 10,3 C 0,0 km/h (0 Bft) 0,00 %
15.09.2015 00:00 10,2 C 98 % 1012,1 hPa 0,3 l/m 0,0 km/h (0 Bft) N 0,00 h 0,000 mm 0,0 UV-I 0 W/m 9,9 C 10,2 C 0,0 km/h (0 Bft) 0,00 %
15.09.2015 01:00 10,9 C 97 % 1013,1 hPa 0,0 l/m 0,0 km/h (0 Bft) N 0,00 h 0,000 mm 0,0 UV-I 0 W/m 10,5 C 10,9 C 0,0 km/h (0 Bft) 0,00 %
15.09.2015 02:00 10,8 C 98 % 1013,2 hPa 0,0 l/m 0,0 km/h (0 Bft) N 0,00 h 0,000 mm 0,0 UV-I 0 W/m 10,4 C 10,8 C 0,0 km/h (0 Bft) 0,00 %
15.09.2015 03:00 10,4 C 98 % 1013,7 hPa 0,0 l/m 0,3 km/h (0 Bft) NW 0,00 h 0,000 mm 0,0 UV-I 0 W/m 10,1 C 10,4 C 1,0 km/h (0 Bft) 0,00 %
15.09.2015 04:00 10,6 C 98 % 1014,0 hPa 0,0 l/m 0,1 km/h (0 Bft) N 0,00 h 0,000 mm 0,0 UV-I 0 W/m 10,3 C 10,6 C 0,7 km/h (0 Bft) 0,00 %
15.09.2015 05:00 10,7 C 98 % 1014,2 hPa 0,0 l/m 0,0 km/h (0 Bft) N 0,00 h 0,000 mm 0,0 UV-I 0 W/m 10,4 C 10,7 C 0,0 km/h (0 Bft) 0,00 %
15.09.2015 06:00 10,4 C 98 % 1013,9 hPa 0,0 l/m 0,0 km/h (0 Bft) N 0,00 h 0,000 mm 0,0 UV-I 4 W/m 10,1 C 10,4 C 0,0 km/h (0 Bft) 0,00 %
15.09.2015 07:00 11,0 C 97 % 1013,6 hPa 0,0 l/m 0,0 km/h (0 Bft) N 0,00 h 0,000 mm 0,0 UV-I 51 W/m 10,6 C 11,0 C 0,0 km/h (0 Bft) 0,00 %
15.09.2015 08:00 12,5 C 97 % 1013,2 hPa 0,0 l/m 0,3 km/h (0 Bft) NO 0,00 h 0,000 mm 1,0 UV-I 143 W/m 12,1 C 12,5 C 1,0 km/h (0 Bft) 0,00 %
15.09.2015 09:00 14,1 C 87 % 1012,7 hPa 0,0 l/m 0,4 km/h (0 Bft) NO 0,00 h 0,000 mm 1,0 UV-I 184 W/m 12,0 C 14,1 C 2,0 km/h (1 Bft) 0,00 %
15.09.2015 10:00 16,3 C 75 % 1012,2 hPa 0,0 l/m 2,3 km/h (1 Bft) O-NO 0,50 h 0,000 mm 1,8 UV-I 319 W/m 11,8 C 16,2 C 4,3 km/h (1 Bft) 0,00 %
15.09.2015 11:00 17,9 C 66 % 1011,5 hPa 0,0 l/m 2,0 km/h (1 Bft) O-SO 1,00 h 0,000 mm 2,0 UV-I 490 W/m 11,4 C 17,9 C 4,3 km/h (1 Bft) 0,00 %
15.09.2015 12:00 18,8 C 55 % 1010,7 hPa 0,0 l/m 4,2 km/h (1 Bft) O 1,00 h 0,000 mm 2,7 UV-I 657 W/m 9,4 C 18,5 C 6,9 km/h (2 Bft) 0,00 %
15.09.2015 13:00 19,4 C 55 % 1010,3 hPa 0,0 l/m 1,4 km/h (1 Bft) O 0,50 h 0,000 mm 2,0 UV-I 453 W/m 10,2 C 19,4 C 3,7 km/h (1 Bft) 0,00 %
15.09.2015 14:00 19,6 C 59 % 1010,0 hPa 0,0 l/m 1,2 km/h (1 Bft) O-SO 0,33 h 0,000 mm 1,6 UV-I 331 W/m 11,4 C 19,6 C 3,0 km/h (1 Bft) 0,00 %
15.09.2015 15:00 19,7 C 58 % 1009,4 hPa 0,0 l/m 0,5 km/h (0 Bft) NO 0,08 h 0,000 mm 1,0 UV-I 210 W/m 11,2 C 19,7 C 1,3 km/h (1 Bft) 0,00 %
15.09.2015 16:00 20,4 C 56 % 1009,0 hPa 0,0 l/m 0,1 km/h (0 Bft) N 0,42 h 0,000 mm 1,0 UV-I 299 W/m 11,4 C 20,4 C 0,7 km/h (0 Bft) 0,00 %
15.09.2015 17:00 20,7 C 56 % 1008,9 hPa 0,0 l/m 0,1 km/h (0 Bft) N 0,83 h 0,000 mm 1,0 UV-I 244 W/m 11,5 C 20,7 C 0,7 km/h (0 Bft) 0,00 %
15.09.2015 18:00 18,8 C 65 % 1009,6 hPa 0,0 l/m 0,7 km/h (0 Bft) N-NW 0,00 h 0,000 mm 0,0 UV-I 49 W/m 12,1 C 18,8 C 2,3 km/h (1 Bft) 0,00 %
15.09.2015 19:00 16,9 C 72 % 1010,1 hPa 0,0 l/m 0,3 km/h (0 Bft) NW 0,00 h 0,000 mm 0,0 UV-I 0 W/m 11,8 C 16,9 C 1,0 km/h (0 Bft) 0,00 %
15.09.2015 20:00 16,5 C 72 % 1010,5 hPa 0,0 l/m 0,1 km/h (0 Bft) N 0,00 h 0,000 mm 0,0 UV-I 0 W/m 11,5 C 16,5 C 1,0 km/h (0 Bft) 0,00 %
15.09.2015 21:00 16,1 C 74 % 1010,2 hPa 0,0 l/m 0,1 km/h (0 Bft) NW 0,00 h 0,000 mm 0,0 UV-I 0 W/m 11,4 C 16,1 C 0,3 km/h (0 Bft) 0,00 %
15.09.2015 22:00 15,8 C 76 % 1010,6 hPa 0,0 l/m 0,0 km/h (0 Bft) N 0,00 h 0,000 mm 0,0 UV-I 0 W/m 11,6 C 15,8 C 0,0 km/h (0 Bft) 0,00 %
15.09.2015 23:00 14,3 C 81 % 1010,2 hPa 0,0 l/m 0,0 km/h (0 Bft) N 0,00 h 0,000 mm 0,0 UV-I 0 W/m 11,2 C 14,3 C 0,0 km/h (0 Bft) 0,00 %
16.09.2015 00:00 12,5 C 88 % 1009,6 hPa 0,0 l/m 0,0 km/h (0 Bft) N 0,00 h 0,000 mm 0,0 UV-I 0 W/m 10,5 C 12,5 C 0,0 km/h (0 Bft) 0,00 %
16.09.2015 01:00 11,6 C 90 % 1008,8 hPa 0,0 l/m 0,0 km/h (0 Bft) N 0,00 h 0,000 mm 0,0 UV-I 0 W/m 10,0 C 11,6 C 0,0 km/h (0 Bft) 0,00 %
16.09.2015 02:00 10,8 C 93 % 1007,9 hPa 0,0 l/m 0,0 km/h (0 Bft) N 0,00 h 0,000 mm 0,0 UV-I 0 W/m 9,7 C 10,8 C 0,0 km/h (0 Bft) 0,00 %
16.09.2015 03:00 10,5 C 96 % 1007,5 hPa 0,0 l/m 0,0 km/h (0 Bft) N 0,00 h 0,000 mm 0,0 UV-I 0 W/m 9,8 C 10,5 C 0,0 km/h (0 Bft) 0,00 %
16.09.2015 04:00 9,9 C 97 % 1007,0 hPa 0,0 l/m 0,1 km/h (0 Bft) O-SO 0,00 h 0,000 mm 0,0 UV-I 0 W/m 9,5 C 9,9 C 0,3 km/h (0 Bft) 0,00 %
16.09.2015 05:00 10,9 C 97 % 1006,3 hPa 0,0 l/m 0,6 km/h (0 Bft) SO 0,00 h 0,000 mm 0,0 UV-I 0 W/m 10,5 C 10,9 C 1,7 km/h (1 Bft) 0,00 %
16.09.2015 06:00 10,6 C 98 % 1005,6 hPa 0,0 l/m 0,0 km/h (0 Bft) N 0,00 h 0,000 mm 0,0 UV-I 9 W/m 10,3 C 10,6 C 0,0 km/h (0 Bft) 0,00 %
16.09.2015 07:00 11,2 C 97 % 1004,8 hPa 0,0 l/m 0,0 km/h (0 Bft) N 0,50 h 0,000 mm 0,0 UV-I 73 W/m 10,8 C 11,2 C 0,0 km/h (0 Bft) 0,00 %
16.09.2015 08:00 14,8 C 83 % 1004,4 hPa 0,0 l/m 1,6 km/h (1 Bft) O 0,67 h 0,000 mm 1,0 UV-I 171 W/m 12,0 C 14,8 C 3,6 km/h (1 Bft) 0,00 %
16.09.2015 09:00 15,0 C 81 % 1004,3 hPa 0,0 l/m 1,5 km/h (1 Bft) O-SO 0,00 h 0,000 mm 1,0 UV-I 210 W/m 11,7 C 14,9 C 3,6 km/h (1 Bft) 0,00 %
16.09.2015 10:00 17,5 C 70 % 1004,2 hPa 0,0 l/m 2,1 km/h (1 Bft) O 0,42 h 0,000 mm 1,5 UV-I 314 W/m 11,9 C 17,5 C 4,3 km/h (1 Bft) 0,00 %
16.09.2015 11:00 19,3 C 65 % 1003,5 hPa 0,0 l/m 3,3 km/h (1 Bft) NO 0,58 h 0,000 mm 1,7 UV-I 470 W/m 12,6 C 19,3 C 6,6 km/h (2 Bft) 0,00 %
16.09.2015 12:00 21,2 C 61 % 1002,9 hPa 0,0 l/m 2,7 km/h (1 Bft) O 1,00 h 0,000 mm 2,5 UV-I 633 W/m 13,4 C 21,2 C 5,6 km/h (1 Bft) 0,00 %
16.09.2015 13:00 22,8 C 58 % 1002,3 hPa 0,0 l/m 3,8 km/h (1 Bft) O 1,00 h 0,000 mm 2,5 UV-I 685 W/m 13,9 C 22,7 C 6,9 km/h (2 Bft) 0,00 %
16.09.2015 14:00 23,9 C 54 % 1001,9 hPa 0,0 l/m 2,5 km/h (1 Bft) N-NO 1,00 h 0,000 mm 1,2 UV-I 613 W/m 14,0 C 23,9 C 5,3 km/h (1 Bft) 0,00 %
16.09.2015 15:00 25,0 C 47 % 1001,6 hPa 0,0 l/m 2,8 km/h (1 Bft) O-NO 1,00 h 0,000 mm 1,0 UV-I 658 W/m 13,0 C 25,0 C 6,0 km/h (2 Bft) 0,00 %
16.09.2015 16:00 26,1 C 44 % 1001,6 hPa 0,0 l/m 2,5 km/h (1 Bft) O 1,00 h 0,000 mm 1,0 UV-I 716 W/m 12,9 C 26,1 C 5,3 km/h (1 Bft) 0,00 %
16.09.2015 17:00 26,2 C 47 % 1001,2 hPa 0,0 l/m 2,8 km/h (1 Bft) O 1,02 h 0,000 mm 1,0 UV-I 621 W/m 13,9 C 26,2 C 6,0 km/h (2 Bft) 0,00 %
16.09.2015 18:00 24,3 C 57 % 1001,0 hPa 0,0 l/m 1,2 km/h (1 Bft) O 1,00 h 0,000 mm 0,0 UV-I 188 W/m 15,1 C 24,3 C 3,3 km/h (1 Bft) 0,00 %
16.09.2015 19:00 21,7 C 67 % 1001,0 hPa 0,0 l/m 1,1 km/h (1 Bft) O-NO 0,08 h 0,000 mm 0,0 UV-I 5 W/m 15,4 C 21,7 C 2,0 km/h (1 Bft) 0,00 %
16.09.2015 20:00 20,5 C 73 % 1001,4 hPa 0,0 l/m 0,5 km/h (0 Bft) O-NO 0,00 h 0,000 mm 0,0 UV-I 0 W/m 15,6 C 20,5 C 2,0 km/h (1 Bft) 0,00 %
16.09.2015 21:00 18,6 C 82 % 1001,8 hPa 0,0 l/m 0,0 km/h (0 Bft) N 0,00 h 0,000 mm 0,0 UV-I 0 W/m 15,4 C 18,6 C 0,0 km/h (0 Bft) 0,00 %
16.09.2015 22:00 17,0 C 87 % 1002,0 hPa 0,0 l/m 0,1 km/h (0 Bft) O-SO 0,00 h 0,000 mm 0,0 UV-I 0 W/m 14,8 C 17,0 C 0,7 km/h (0 Bft) 0,00 %
16.09.2015 23:00 16,2 C 89 % 1002,3 hPa 0,0 l/m 0,2 km/h (0 Bft) N 0,00 h 0,000 mm 0,0 UV-I 0 W/m 14,4 C 16,2 C 0,7 km/h (0 Bft) 0,00 %
17.09.2015 00:00 15,5 C 92 % 1002,3 hPa 0,0 l/m 0,0 km/h (0 Bft) N 0,00 h 0,000 mm 0,0 UV-I 0 W/m 14,1 C 15,5 C 0,0 km/h (0 Bft) 0,00 %
17.09.2015 01:00 14,7 C 93 % 1002,3 hPa 0,0 l/m 0,0 km/h (0 Bft) N 0,00 h 0,000 mm 0,0 UV-I 0 W/m 13,5 C 14,7 C 0,0 km/h (0 Bft) 0,00 %
17.09.2015 02:00 13,8 C 95 % 1002,5 hPa 0,0 l/m 0,0 km/h (0 Bft) N 0,00 h 0,000 mm 0,0 UV-I 0 W/m 12,9 C 13,8 C 0,0 km/h (0 Bft) 0,00 %
17.09.2015 03:00 13,2 C 96 % 1002,6 hPa 0,0 l/m 0,0 km/h (0 Bft) N 0,00 h 0,000 mm 0,0 UV-I 0 W/m 12,5 C 13,2 C 0,0 km/h (0 Bft) 0,00 %
17.09.2015 04:00 13,6 C 94 % 1002,6 hPa 0,0 l/m 0,0 km/h (0 Bft) N 0,00 h 0,000 mm 0,0 UV-I 0 W/m 12,6 C 13,6 C 0,0 km/h (0 Bft) 0,00 %
17.09.2015 05:00 13,5 C 91 % 1002,7 hPa 0,0 l/m 0,0 km/h (0 Bft) N 0,00 h 0,000 mm 0,0 UV-I 0 W/m 12,0 C 13,5 C 0,0 km/h (0 Bft) 0,00 %
17.09.2015 06:00 13,0 C 90 % 1002,9 hPa 0,0 l/m 0,0 km/h (0 Bft) N 0,08 h 0,000 mm 0,0 UV-I 11 W/m 11,3 C 13,0 C 0,0 km/h (0 Bft) 0,00 %
17.09.2015 07:00 13,8 C 87 % 1003,2 hPa 0,0 l/m 0,0 km/h (0 Bft) N 0,83 h 0,000 mm 0,0 UV-I 100 W/m 11,6 C 13,8 C 0,0 km/h (0 Bft) 0,00 %
17.09.2015 08:00 18,7 C 66 % 1003,1 hPa 0,0 l/m 0,2 km/h (0 Bft) NO 1,00 h 0,000 mm 1,0 UV-I 211 W/m 12,2 C 18,7 C 0,3 km/h (0 Bft) 0,00 %
17.09.2015 09:00 20,5 C 60 % 1003,0 hPa 0,0 l/m 1,7 km/h (1 Bft) O 0,67 h 0,000 mm 1,0 UV-I 244 W/m 12,3 C 20,5 C 3,7 km/h (1 Bft) 0,00 %
17.09.2015 10:00 22,9 C 52 % 1003,0 hPa 0,0 l/m 1,8 km/h (1 Bft) O 0,35 h 0,000 mm 1,7 UV-I 301 W/m 12,4 C 22,9 C 4,7 km/h (1 Bft) 0,00 %
17.09.2015 11:00 26,4 C 40 % 1002,6 hPa 0,0 l/m 2,4 km/h (1 Bft) O-NO 1,00 h 0,000 mm 2,0 UV-I 498 W/m 11,7 C 26,4 C 4,3 km/h (1 Bft) 0,00 %
17.09.2015 12:00 28,1 C 38 % 1001,8 hPa 0,0 l/m 5,5 km/h (1 Bft) O-NO 1,00 h 0,000 mm 2,1 UV-I 685 W/m 12,5 C 28,0 C 8,9 km/h (2 Bft) 0,00 %
17.09.2015 13:00 28,0 C 41 % 1001,4 hPa 0,0 l/m 4,7 km/h (1 Bft) O 0,08 h 0,000 mm 1,1 UV-I 241 W/m 13,3 C 28,0 C 7,9 km/h (2 Bft) 0,00 %
17.09.2015 14:00 27,4 C 42 % 1000,8 hPa 0,0 l/m 3,3 km/h (1 Bft) O 0,42 h 0,000 mm 1,0 UV-I 372 W/m 13,4 C 27,3 C 5,6 km/h (1 Bft) 0,00 %
17.09.2015 15:00 29,2 C 35 % 1000,3 hPa 0,0 l/m 3,6 km/h (1 Bft) O-NO 1,00 h 0,000 mm 1,0 UV-I 429 W/m 12,1 C 29,1 C 6,3 km/h (2 Bft) 0,00 %
17.09.2015 16:00 29,7 C 33 % 1000,0 hPa 0,0 l/m 1,4 km/h (1 Bft) O-NO 0,92 h 0,000 mm 1,0 UV-I 315 W/m 11,9 C 29,7 C 3,3 km/h (1 Bft) 0,00 %
17.09.2015 17:00 27,6 C 43 % 1002,2 hPa 0,0 l/m 6,8 km/h (2 Bft) O-SO 0,83 h 0,000 mm 1,0 UV-I 169 W/m 13,5 C 26,9 C 10,9 km/h (2 Bft) 0,00 %
17.09.2015 18:00 21,3 C 51 % 1007,7 hPa 0,0 l/m 12,1 km/h (2 Bft) S-SO 1,00 h 0,000 mm 0,0 UV-I 132 W/m 10,6 C 19,5 C 19,3 km/h (3 Bft) 0,00 %
17.09.2015 19:00 18,8 C 51 % 1011,0 hPa 0,0 l/m 13,4 km/h (3 Bft) S-SW 0,00 h 0,000 mm 0,0 UV-I 0 W/m 8,5 C 16,5 C 21,9 km/h (4 Bft) 0,00 %
17.09.2015 20:00 17,1 C 54 % 1013,5 hPa 0,0 l/m 9,0 km/h (2 Bft) S 0,00 h 0,000 mm 0,0 UV-I 0 W/m 7,8 C 15,9 C 12,9 km/h (3 Bft) 0,00 %
17.09.2015 21:00 16,2 C 59 % 1014,6 hPa 0,0 l/m 8,3 km/h (2 Bft) S 0,00 h 0,000 mm 0,0 UV-I 0 W/m 8,2 C 15,0 C 11,6 km/h (2 Bft) 0,00 %
17.09.2015 22:00 15,4 C 64 % 1015,2 hPa 0,0 l/m 3,6 km/h (1 Bft) S 0,00 h 0,000 mm 0,0 UV-I 0 W/m 8,7 C 15,0 C 6,9 km/h (2 Bft) 0,00 %
17.09.2015 23:00 15,0 C 68 % 1015,0 hPa 0,0 l/m 0,0 km/h (0 Bft) N 0,00 h 0,000 mm 0,0 UV-I 0 W/m 9,0 C 15,0 C 0,0 km/h (0 Bft) 0,00 %
18.09.2015 00:00 14,4 C 72 % 1015,4 hPa 0,0 l/m 0,0 km/h (0 Bft) N 0,00 h 0,000 mm 0,0 UV-I 0 W/m 9,4 C 14,4 C 0,0 km/h (0 Bft) 0,00 %
18.09.2015 01:00 14,2 C 74 % 1015,6 hPa 0,0 l/m 0,1 km/h (0 Bft) NO 0,00 h 0,000 mm 0,0 UV-I 0 W/m 9,7 C 14,2 C 0,7 km/h (0 Bft) 0,00 %
18.09.2015 02:00 13,9 C 77 % 1015,8 hPa 0,0 l/m 0,0 km/h (0 Bft) N 0,00 h 0,000 mm 0,0 UV-I 0 W/m 9,9 C 13,9 C 0,0 km/h (0 Bft) 0,00 %
18.09.2015 03:00 13,7 C 80 % 1016,1 hPa 0,0 l/m 0,0 km/h (0 Bft) N 0,00 h 0,000 mm 0,0 UV-I 0 W/m 10,4 C 13,7 C 0,0 km/h (0 Bft) 0,00 %
18.09.2015 04:00 13,6 C 81 % 1016,1 hPa 0,0 l/m 0,0 km/h (0 Bft) N 0,00 h 0,000 mm 0,0 UV-I 0 W/m 10,4 C 13,6 C 0,0 km/h (0 Bft) 0,00 %
18.09.2015 05:00 13,4 C 83 % 1016,0 hPa 0,0 l/m 0,0 km/h (0 Bft) N 0,00 h 0,000 mm 0,0 UV-I 0 W/m 10,5 C 13,4 C 0,0 km/h (0 Bft) 0,00 %
18.09.2015 06:00 13,3 C 84 % 1016,0 hPa 0,0 l/m 0,0 km/h (0 Bft) N 0,00 h 0,000 mm 0,0 UV-I 2 W/m 10,6 C 13,3 C 0,0 km/h (0 Bft) 0,00 %
18.09.2015 07:00 13,9 C 81 % 1016,6 hPa 0,0 l/m 0,0 km/h (0 Bft) N 0,00 h 0,000 mm 0,0 UV-I 54 W/m 10,8 C 13,9 C 0,0 km/h (0 Bft) 0,00 %
18.09.2015 08:00 14,9 C 72 % 1017,1 hPa 0,0 l/m 0,0 km/h (0 Bft) N 0,00 h 0,000 mm 1,0 UV-I 122 W/m 10,0 C 14,9 C 0,3 km/h (0 Bft) 0,00 %
18.09.2015 09:00 15,6 C 65 % 1017,6 hPa 0,0 l/m 0,2 km/h (0 Bft) N 0,25 h 0,000 mm 1,0 UV-I 168 W/m 9,2 C 15,6 C 1,3 km/h (1 Bft) 0,00 %
18.09.2015 10:00 15,4 C 67 % 1017,9 hPa 0,0 l/m 0,8 km/h (0 Bft) O-NO 0,00 h 0,000 mm 1,0 UV-I 145 W/m 9,2 C 15,4 C 2,3 km/h (1 Bft) 0,00 %
18.09.2015 11:00 14,7 C 77 % 1018,1 hPa 0,3 l/m 0,0 km/h (0 Bft) N 0,00 h 0,000 mm 1,0 UV-I 109 W/m 10,5 C 14,7 C 0,0 km/h (0 Bft) 0,00 %
18.09.2015 12:00 14,6 C 80 % 1018,3 hPa 0,0 l/m 0,0 km/h (0 Bft) N 0,08 h 0,000 mm 1,1 UV-I 181 W/m 11,3 C 14,6 C 0,0 km/h (0 Bft) 0,00 %
18.09.2015 13:00 15,8 C 74 % 1018,4 hPa 0,0 l/m 0,8 km/h (0 Bft) NO 0,17 h 0,000 mm 1,1 UV-I 294 W/m 11,2 C 15,8 C 2,0 km/h (1 Bft) 0,00 %
18.09.2015 14:00 16,9 C 69 % 1018,4 hPa 0,0 l/m 0,2 km/h (0 Bft) N 0,42 h 0,000 mm 1,3 UV-I 344 W/m 11,1 C 16,9 C 1,3 km/h (1 Bft) 0,00 %
18.09.2015 15:00 16,7 C 69 % 1018,7 hPa 0,0 l/m 0,2 km/h (0 Bft) NO 0,08 h 0,000 mm 1,0 UV-I 157 W/m 10,9 C 16,7 C 0,7 km/h (0 Bft) 0,00 %
18.09.2015 16:00 16,3 C 70 % 1019,0 hPa 0,0 l/m 0,0 km/h (0 Bft) N 0,00 h 0,000 mm 1,0 UV-I 155 W/m 10,7 C 16,3 C 0,0 km/h (0 Bft) 0,00 %
18.09.2015 17:00 17,1 C 67 % 1019,1 hPa 0,0 l/m 0,0 km/h (0 Bft) N 0,00 h 0,000 mm 1,0 UV-I 102 W/m 11,0 C 17,1 C 0,0 km/h (0 Bft) 0,00 %
18.09.2015 18:00 16,2 C 72 % 1019,4 hPa 0,0 l/m 0,0 km/h (0 Bft) N 0,00 h 0,000 mm 0,0 UV-I 35 W/m 11,2 C 16,2 C 0,0 km/h (0 Bft) 0,00 %
18.09.2015 19:00 15,1 C 78 % 1019,7 hPa 0,0 l/m 0,0 km/h (0 Bft) N 0,00 h 0,000 mm 0,0 UV-I 0 W/m 11,2 C 15,1 C 0,0 km/h (0 Bft) 0,00 %
18.09.2015 20:00 14,0 C 84 % 1020,2 hPa 0,0 l/m 0,0 km/h (0 Bft) N 0,00 h 0,000 mm 0,0 UV-I 0 W/m 11,4 C 14,0 C 0,0 km/h (0 Bft) 0,00 %
18.09.2015 21:00 13,3 C 87 % 1020,5 hPa 0,0 l/m 0,0 km/h (0 Bft) N 0,00 h 0,000 mm 0,0 UV-I 0 W/m 11,1 C 13,3 C 0,0 km/h (0 Bft) 0,00 %
18.09.2015 22:00 12,1 C 91 % 1020,9 hPa 0,0 l/m 0,0 km/h (0 Bft) N 0,00 h 0,000 mm 0,0 UV-I 0 W/m 10,7 C 12,1 C 0,0 km/h (0 Bft) 0,00 %
18.09.2015 23:00 12,1 C 90 % 1021,7 hPa 0,0 l/m 0,1 km/h (0 Bft) N 0,00 h 0,000 mm 0,0 UV-I 0 W/m 10,4 C 12,1 C 0,3 km/h (0 Bft) 0,00 %
19.09.2015 00:00 11,9 C 90 % 1021,9 hPa 0,0 l/m 0,0 km/h (0 Bft) N 0,00 h 0,000 mm 0,0 UV-I 0 W/m 10,3 C 11,9 C 0,0 km/h (0 Bft) 0,00 %
19.09.2015 01:00 12,2 C 90 % 1022,0 hPa 0,0 l/m 0,1 km/h (0 Bft) S-SW 0,00 h 0,000 mm 0,0 UV-I 0 W/m 10,5 C 12,2 C 0,3 km/h (0 Bft) 0,00 %
19.09.2015 02:00 12,5 C 89 % 1022,1 hPa 0,0 l/m 0,0 km/h (0 Bft) N 0,00 h 0,000 mm 0,0 UV-I 0 W/m 10,6 C 12,5 C 0,3 km/h (0 Bft) 0,00 %
19.09.2015 03:00 11,2 C 93 % 1022,3 hPa 0,0 l/m 0,0 km/h (0 Bft) N 0,00 h 0,000 mm 0,0 UV-I 0 W/m 10,1 C 11,2 C 0,0 km/h (0 Bft) 0,00 %
19.09.2015 04:00 10,2 C 97 % 1022,2 hPa 0,0 l/m 0,0 km/h (0 Bft) N 0,00 h 0,000 mm 0,0 UV-I 0 W/m 9,7 C 10,2 C 0,0 km/h (0 Bft) 0,00 %
19.09.2015 05:00 9,6 C 99 % 1022,1 hPa 0,0 l/m 0,0 km/h (0 Bft) N 0,00 h 0,000 mm 0,0 UV-I 0 W/m 9,5 C 9,6 C 0,0 km/h (0 Bft) 0,00 %
19.09.2015 06:00 9,1 C 99 % 1022,2 hPa 0,0 l/m 0,0 km/h (0 Bft) N 0,00 h 0,000 mm 0,0 UV-I 5 W/m 8,9 C 9,1 C 0,0 km/h (0 Bft) 0,00 %
19.09.2015 07:00 9,2 C 99 % 1022,5 hPa 0,0 l/m 0,0 km/h (0 Bft) N 0,00 h 0,000 mm 0,0 UV-I 45 W/m 9,1 C 9,2 C 0,0 km/h (0 Bft) 0,00 %
19.09.2015 08:00 11,4 C 95 % 1022,7 hPa 0,0 l/m 0,1 km/h (0 Bft) N 0,00 h 0,000 mm 1,0 UV-I 125 W/m 10,6 C 11,4 C 0,7 km/h (0 Bft) 0,00 %
19.09.2015 09:00 14,2 C 81 % 1022,6 hPa 0,0 l/m 0,4 km/h (0 Bft) O-SO 0,00 h 0,000 mm 1,0 UV-I 176 W/m 11,0 C 14,2 C 1,3 km/h (1 Bft) 0,00 %
19.09.2015 10:00 16,0 C 72 % 1021,7 hPa 0,0 l/m 0,3 km/h (0 Bft) S-SW 0,08 h 0,000 mm 1,0 UV-I 259 W/m 10,9 C 16,0 C 0,7 km/h (0 Bft) 0,00 %
19.09.2015 11:00 18,1 C 63 % 1021,4 hPa 0,0 l/m 0,6 km/h (0 Bft) N-NW 0,83 h 0,000 mm 2,0 UV-I 417 W/m 11,0 C 18,1 C 2,0 km/h (1 Bft) 0,00 %
19.09.2015 12:00 19,2 C 55 % 1020,8 hPa 0,0 l/m 0,2 km/h (0 Bft) N-NO 1,00 h 0,000 mm 2,0 UV-I 543 W/m 10,0 C 19,2 C 0,3 km/h (0 Bft) 0,00 %
19.09.2015 13:00 20,0 C 51 % 1020,6 hPa 0,0 l/m 0,8 km/h (0 Bft) O-NO 0,85 h 0,000 mm 1,8 UV-I 469 W/m 9,5 C 20,0 C 2,0 km/h (1 Bft) 0,00 %
19.09.2015 14:00 21,0 C 46 % 1020,0 hPa 0,0 l/m 0,5 km/h (0 Bft) N 0,83 h 0,000 mm 1,7 UV-I 464 W/m 8,8 C 21,0 C 1,7 km/h (1 Bft) 0,00 %
19.09.2015 15:00 20,2 C 49 % 1019,2 hPa 0,0 l/m 0,0 km/h (0 Bft) N 0,00 h 0,000 mm 1,0 UV-I 225 W/m 9,0 C 20,2 C 0,0 km/h (0 Bft) 0,00 %
19.09.2015 16:00 20,6 C 49 % 1018,9 hPa 0,0 l/m 0,3 km/h (0 Bft) S-SO 0,00 h 0,000 mm 1,0 UV-I 140 W/m 9,4 C 20,6 C 1,0 km/h (0 Bft) 0,00 %
19.09.2015 17:00 19,0 C 57 % 1019,7 hPa 0,0 l/m 0,7 km/h (0 Bft) S-SO 0,00 h 0,000 mm 0,0 UV-I 60 W/m 10,3 C 19,0 C 1,3 km/h (1 Bft) 0,00 %
19.09.2015 18:00 17,6 C 64 % 1020,1 hPa 0,0 l/m 0,1 km/h (0 Bft) N 0,00 h 0,000 mm 0,0 UV-I 15 W/m 10,7 C 17,6 C 0,3 km/h (0 Bft) 0,00 %
19.09.2015 19:00 16,2 C 70 % 1020,0 hPa 0,0 l/m 0,7 km/h (0 Bft) SW 0,00 h 0,000 mm 0,0 UV-I 0 W/m 10,8 C 16,2 C 2,2 km/h (1 Bft) 0,00 %
19.09.2015 20:00 15,6 C 75 % 1020,0 hPa 0,0 l/m 0,6 km/h (0 Bft) SO 0,00 h 0,000 mm 0,0 UV-I 0 W/m 11,1 C 15,6 C 2,7 km/h (1 Bft) 0,00 %
19.09.2015 21:00 15,3 C 77 % 1020,1 hPa 0,0 l/m 1,5 km/h (1 Bft) S 0,00 h 0,000 mm 0,0 UV-I 0 W/m 11,2 C 15,2 C 2,3 km/h (1 Bft) 0,00 %
19.09.2015 22:00 14,9 C 82 % 1020,5 hPa 0,0 l/m 2,0 km/h (1 Bft) S 0,00 h 0,000 mm 0,0 UV-I 0 W/m 11,8 C 14,9 C 4,3 km/h (1 Bft) 0,00 %
19.09.2015 23:00 14,3 C 87 % 1020,7 hPa 0,3 l/m 1,1 km/h (0 Bft) O 0,00 h 0,000 mm 0,0 UV-I 0 W/m 12,1 C 14,3 C 2,0 km/h (1 Bft) 0,00 %
20.09.2015 00:00 13,7 C 92 % 1020,8 hPa 0,3 l/m 0,9 km/h (0 Bft) SW 0,00 h 0,000 mm 0,0 UV-I 0 W/m 12,4 C 13,7 C 2,0 km/h (1 Bft) 0,00 %
20.09.2015 01:00 13,4 C 92 % 1020,9 hPa 0,9 l/m 1,2 km/h (1 Bft) O 0,00 h 0,000 mm 0,0 UV-I 0 W/m 12,0 C 13,4 C 3,7 km/h (1 Bft) 0,00 %
20.09.2015 02:00 12,7 C 95 % 1021,0 hPa 0,9 l/m 1,8 km/h (1 Bft) SW 0,00 h 0,000 mm 0,0 UV-I 0 W/m 11,9 C 12,7 C 4,0 km/h (1 Bft) 0,00 %
20.09.2015 03:00 12,7 C 96 % 1021,1 hPa 0,0 l/m 2,4 km/h (1 Bft) SW 0,00 h 0,000 mm 0,0 UV-I 0 W/m 12,1 C 12,7 C 5,3 km/h (1 Bft) 0,00 %
20.09.2015 04:00 12,4 C 96 % 1020,8 hPa 0,3 l/m 2,4 km/h (1 Bft) S-SW 0,00 h 0,000 mm 0,0 UV-I 0 W/m 11,7 C 12,4 C 4,3 km/h (1 Bft) 0,00 %
20.09.2015 05:00 11,9 C 92 % 1020,8 hPa 0,0 l/m 3,5 km/h (1 Bft) S 0,00 h 0,000 mm 0,0 UV-I 0 W/m 10,7 C 11,9 C 5,6 km/h (1 Bft) 0,00 %
20.09.2015 06:00 11,7 C 91 % 1021,0 hPa 0,0 l/m 3,5 km/h (1 Bft) S 0,00 h 0,000 mm 0,0 UV-I 0 W/m 10,3 C 11,7 C 6,0 km/h (2 Bft) 0,00 %
20.09.2015 07:00 11,5 C 92 % 1021,8 hPa 0,0 l/m 3,1 km/h (1 Bft) S-SW 0,00 h 0,000 mm 0,0 UV-I 6 W/m 10,2 C 11,5 C 6,0 km/h (2 Bft) 0,00 %
20.09.2015 08:00 11,8 C 90 % 1021,9 hPa 0,0 l/m 1,1 km/h (1 Bft) SW 0,00 h 0,000 mm 0,0 UV-I 62 W/m 10,2 C 11,8 C 3,3 km/h (1 Bft) 0,00 %
20.09.2015 09:00 12,8 C 85 % 1021,8 hPa 0,0 l/m 3,5 km/h (1 Bft) S 0,00 h 0,000 mm 1,0 UV-I 145 W/m 10,3 C 12,6 C 6,0 km/h (2 Bft) 0,00 %
20.09.2015 10:00 14,5 C 75 % 1021,6 hPa 0,0 l/m 2,8 km/h (1 Bft) SO 0,67 h 0,000 mm 1,5 UV-I 338 W/m 10,2 C 14,5 C 5,3 km/h (1 Bft) 0,00 %
20.09.2015 11:00 16,3 C 66 % 1021,2 hPa 0,0 l/m 7,7 km/h (2 Bft) S 0,67 h 0,000 mm 1,8 UV-I 435 W/m 9,9 C 15,0 C 10,9 km/h (2 Bft) 0,00 %
20.09.2015 12:00 16,4 C 63 % 1020,9 hPa 0,0 l/m 5,0 km/h (1 Bft) S-SW 0,25 h 0,000 mm 1,5 UV-I 366 W/m 9,2 C 16,0 C 8,3 km/h (2 Bft) 0,00 %
20.09.2015 13:00 16,6 C 59 % 1020,3 hPa 0,0 l/m 6,0 km/h (2 Bft) S-SW 0,42 h 0,000 mm 1,7 UV-I 390 W/m 8,6 C 16,3 C 9,9 km/h (2 Bft) 0,00 %
20.09.2015 14:00 16,0 C 62 % 1020,4 hPa 0,0 l/m 2,8 km/h (1 Bft) SW 0,00 h 0,000 mm 1,0 UV-I 195 W/m 8,6 C 15,9 C 4,6 km/h (1 Bft) 0,00 %
20.09.2015 15:00 16,3 C 60 % 1020,3 hPa 0,0 l/m 5,2 km/h (1 Bft) S 0,08 h 0,000 mm 1,0 UV-I 272 W/m 8,5 C 15,9 C 8,6 km/h (2 Bft) 0,00 %
20.09.2015 16:00 15,5 C 61 % 1020,5 hPa 0,0 l/m 3,0 km/h (1 Bft) W-SW 0,00 h 0,000 mm 1,0 UV-I 121 W/m 7,9 C 15,3 C 5,3 km/h (1 Bft) 0,00 %
20.09.2015 17:00 15,0 C 62 % 1021,0 hPa 0,0 l/m 1,9 km/h (1 Bft) NW 0,00 h 0,000 mm 0,0 UV-I 36 W/m 7,7 C 15,0 C 3,7 km/h (1 Bft) 0,00 %
20.09.2015 18:00 14,3 C 66 % 1021,0 hPa 0,0 l/m 1,5 km/h (1 Bft) S 0,42 h 0,000 mm 0,0 UV-I 43 W/m 8,0 C 14,3 C 4,0 km/h (1 Bft) 0,00 %
20.09.2015 19:00 13,3 C 71 % 1021,2 hPa 0,0 l/m 1,2 km/h (1 Bft) S-SW 0,00 h 0,000 mm 0,0 UV-I 0 W/m 8,0 C 13,3 C 3,3 km/h (1 Bft) 0,00 %
20.09.2015 20:00 12,1 C 75 % 1021,6 hPa 0,0 l/m 2,5 km/h (1 Bft) S 0,00 h 0,000 mm 0,0 UV-I 0 W/m 7,7 C 12,0 C 4,6 km/h (1 Bft) 0,00 %
20.09.2015 21:00 11,2 C 80 % 1022,2 hPa 0,0 l/m 0,4 km/h (0 Bft) O-SO 0,00 h 0,000 mm 0,0 UV-I 0 W/m 7,8 C 11,2 C 0,7 km/h (0 Bft) 0,00 %
20.09.2015 22:00 10,9 C 82 % 1022,4 hPa 0,0 l/m 0,8 km/h (0 Bft) O-SO 0,00 h 0,000 mm 0,0 UV-I 0 W/m 7,9 C 10,9 C 2,7 km/h (1 Bft) 0,00 %
20.09.2015 23:00 10,9 C 84 % 1022,3 hPa 0,0 l/m 0,4 km/h (0 Bft) S-SW 0,00 h 0,000 mm 0,0 UV-I 0 W/m 8,2 C 10,9 C 2,0 km/h (1 Bft) 0,00 %
Min-Datum _ 19.09.15 17.09.15 17.09.15 - 14.09.15 - - - - - 20.09.15 19.09.15 14.09.15 14.09.15
_ Min-Zeit 07:07 13:00 16:50 - 00:00 - - - - - 21:48 07:07 00:00 00:00
Minimum _ 8,7 C 32 % 999,8 hPa - 0,0 km/h (0 Bft) - - - - - 7,5 C 8,7 C 0,0 km/h (0 Bft) 0,00 %
Max-Datum _ 17.09.15 14.09.15 19.09.15 14.09.15 17.09.15 - 16.09.15 14.09.15 15.09.15 19.09.15 16.09.15 17.09.15 17.09.15 14.09.15
_ Max-Zeit 16:20 23:41 09:47 09:20 19:40 - 17:54 00:00 12:17 14:03 21:04 16:20 19:10 00:00
Maximum _ 30,0 C 99 % 1023,0 hPa 0,9 l/m 24,5 km/h
S-SW (4 Bft)
- 0,10 h 0,000 mm 3,0 UV-I 898 W/m 15,9 C 30,0 C 40,0 km/h
S-SW (6 Bft)
0,00 %
Durchschnitt _ 15,5 C 77 % 1012,8 hPa #6,3 l/m 1,3 km/h (1 Bft) S #30:43 h #0,000 mm 1,3 UV-I 231 W/m 11,0 C 15,5 C 2,5 km/h (1 Bft) 0,00 %